気象予報士の航空気象 暴風低気圧接近中

*All archives   *Admin

2010.01.04 (Mon)

暴風低気圧接近中

 現在、朝鮮半島近辺に低気圧が存在しています。


その低気圧は、急発達し、日本に災害をもたらしそうです。


九州北部でも雪になりそうです。


欠航便や遅延便がでそうですね。


あさってには、北海道に襲い掛かるコースなんで、札幌出張のサラリーマンは注意が必要です。


RJFF 040631Z 16019G29KT 9999 FEW030 BKN080 11/01 Q1007 RMK 1CU030 5AC080 A2976


午後3時の福岡のお天気。南よりの強風です。


低気圧が吸い込む風が顕著に現れています。


SHRA、驟雨が降って、


RJFF 041030Z 28018G28KT 6000 FEW020 BKN030 11/05 Q1010


午後7時過ぎ、西風の強風。雲底がどんどん低くなってきています。


やばいね。





ブログランキングに参加しています。
にほんブログ村 環境ブログ 天気・気象学へ
にほんブログ村
応援クリックをおねがします。


以下、アフィリエイトサイトです。




スポンサーサイト
20:16  |  気象・天気  |  TB(0)  |  CM(0)  |  EDIT  |  Top↑

コメントを投稿する


 管理者だけに表示  (非公開コメント投稿可能)

▲PageTop

この記事のトラックバックURL

→http://weathereucalyptus.blog115.fc2.com/tb.php/351-9ae2c1ea
この記事にトラックバックする(FC2ブログユーザー)

この記事へのトラックバック

▲PageTop

 | BLOGTOP |